Weerspreuk van de week. Wanneer de oostenwind tegen den avond gaat liggen, waait hij ligt de volgende dag opnieuw.
Het weer levert geen direct gevaar op.    Er zijn geen waarschuwingen afgegeven.


Onweer radar Meer informatie blitzortung!


Regen radar Meer informatie rain snow radar


Bekijk deze sites ook eens:

FPL Automotive (TIP)

Autostekkers.nl (TIP)

Over Luyksgestel

De Kempen, mijn omgeving

BOL.com

Weerstation Noordbergum

Inktweb

Weerstation Hapert

Weerstation Hoogeloon

Weerstation Son&Breugel

Weerstation Castaert

Smartphonehoesjes

Weerstation Tilburg Reeshof

Weerstation Scheulder

Weerverwachting Samos

Samos actueel

Weerwoord (forum)

Griekenlandforum

Vakantie naar Samos

Zomerzon

Canon

Beleef de lente

Wolven in Nederland



METAR rapporten vliegvelden

   
EBAW - Antwerp
Gewijzigd: 19-07-2019 07:20
Licht bewolkt  
Licht bewolkt  
   Wind: ZW 9.3 km/h
Wind: ZW 9.3 km/h
Temperatuur: 16°C
Dauwpunt: 13°C
Vochtigheid: 83%
Barometer: 1013 hPa
Bewolking: Licht bewolkt
Zicht: meer dan 10 km
Bewolking: Licht bewolkt 3000 ft
EBAW 190520Z 23005KT 9999 FEW030 16/13 Q1013 NOSIG
EBLG - Liège
Gewijzigd: 19-07-2019 07:20
Helder  
Helder  
   Wind: ZW 9.3 km/h
Wind: ZW 9.3 km/h
Temperatuur: 16°C
Dauwpunt: 12°C
Vochtigheid: 77%
Barometer: 1014 hPa
Zicht: meer dan 10 km
Bewolking: Helder
EBLG 190520Z 23005KT CAVOK 16/12 Q1014 NOSIG
EBCV - Mons/Bergen
Gewijzigd: 19-07-2019 07:25
Bewolking  
Bewolking  
   Wind: ZW 9.3 km/h
Wind: ZW 9.3 km/h
Temperatuur: 16°C
Dauwpunt: 13°C
Vochtigheid: 83%
Barometer: 1014 hPa
Bewolking: Bewolking
Zicht: meer dan 10 km
Bewolking: Bewolking 10000 ft
EBCV 190525Z AUTO 22005KT 9999 OVC100/// 16/13 Q1014 BLU
EHBK - Maastricht
Gewijzigd: 19-07-2019 07:25
Licht bewolkt  
Licht bewolkt  
   Wind: WZW 13 km/h
Wind: WZW 13 km/h
Temperatuur: 17°C
Dauwpunt: 13°C
Vochtigheid: 77%
Barometer: 1014 hPa
Bewolking: Licht bewolkt
Zicht: meer dan 10 km
Bewolking: Licht bewolkt 3600 ft
EHBK 190525Z AUTO 24007KT 200V280 9999 FEW036 17/13 Q1014 NOSIG
ELLX - Luxemburg
Gewijzigd: 19-07-2019 07:20
Grotendeels bewolkt  
Grotendeels bewolkt  
   Wind: WZW 9.3 km/h
Wind: WZW 9.3 km/h
Temperatuur: 16°C
Dauwpunt: 15°C
Vochtigheid: 94%
Barometer: 1015 hPa
Bewolking: Grotendeels bewolkt
Zicht: 8 km
Bewolking: Grotendeels bewolkt 500 ft
ELLX 190520Z 24005KT 210V280 8000 BKN005 16/15 Q1015 NOSIG
EBOS - Oostende
Gewijzigd: 19-07-2019 07:20
Licht bewolkt  
Licht bewolkt  
   Wind: ZW 5.6 km/h
Wind: ZW 5.6 km/h
Temperatuur: 13°C
Dauwpunt: 12°C
Vochtigheid: 94%
Barometer: 1013 hPa
Bewolking: Licht bewolkt
Zicht: 8 km
Bewolking: Licht bewolkt 2000 ft
EBOS 190520Z 23003KT 200V260 8000 FEW020 13/12 Q1013 NOSIG

Script ontwikkeld door  Saratoga-weather.org Aangepast voor de template door  Weerstation Leuven

U vindt ons ook hier:

Het Weer Aktueel

UK Metoffice

European Weather Network

Weather Underground

AWEKAS



Lekker winkelen zonder zorgen - Gratis verzending en retour